sensor_id;sensor_type;location;lat;lon;timestamp;temperature;humidity
20526;DHT22;10421;49.142;9.232;2022-10-15T00:01:06;17.80;99.90
20526;DHT22;10421;49.142;9.232;2022-10-15T00:03:35;17.90;99.90
20526;DHT22;10421;49.142;9.232;2022-10-15T00:06:05;18.00;99.90
20526;DHT22;10421;49.142;9.232;2022-10-15T00:08:32;18.00;99.90
20526;DHT22;10421;49.142;9.232;2022-10-15T00:11:02;18.10;99.90
20526;DHT22;10421;49.142;9.232;2022-10-15T00:13:29;18.10;99.90
20526;DHT22;10421;49.142;9.232;2022-10-15T00:15:57;18.10;99.90
20526;DHT22;10421;49.142;9.232;2022-10-15T00:18:24;18.20;99.90
20526;DHT22;10421;49.142;9.232;2022-10-15T00:20:51;18.10;99.90
20526;DHT22;10421;49.142;9.232;2022-10-15T00:23:19;18.10;99.90
20526;DHT22;10421;49.142;9.232;2022-10-15T00:25:46;18.10;99.90
20526;DHT22;10421;49.142;9.232;2022-10-15T00:28:12;18.10;99.90
20526;DHT22;10421;49.142;9.232;2022-10-15T00:30:39;18.10;99.90
20526;DHT22;10421;49.142;9.232;2022-10-15T00:33:06;18.10;99.90
20526;DHT22;10421;49.142;9.232;2022-10-15T00:35:32;18.00;99.90
20526;DHT22;10421;49.142;9.232;2022-10-15T00:37:59;18.10;99.90
20526;DHT22;10421;49.142;9.232;2022-10-15T00:40:27;18.10;99.90
20526;DHT22;10421;49.142;9.232;2022-10-15T00:42:54;18.10;99.90
20526;DHT22;10421;49.142;9.232;2022-10-15T00:45:21;18.00;99.90
20526;DHT22;10421;49.142;9.232;2022-10-15T00:47:48;18.10;99.90
20526;DHT22;10421;49.142;9.232;2022-10-15T00:50:18;18.10;99.90
20526;DHT22;10421;49.142;9.232;2022-10-15T00:52:55;18.10;99.90
20526;DHT22;10421;49.142;9.232;2022-10-15T00:55:28;18.10;99.90
20526;DHT22;10421;49.142;9.232;2022-10-15T00:57:57;18.20;99.90
20526;DHT22;10421;49.142;9.232;2022-10-15T01:00:25;18.20;99.90
20526;DHT22;10421;49.142;9.232;2022-10-15T01:02:51;18.10;99.90
20526;DHT22;10421;49.142;9.232;2022-10-15T01:05:19;18.20;99.90
20526;DHT22;10421;49.142;9.232;2022-10-15T01:07:46;18.20;99.90
20526;DHT22;10421;49.142;9.232;2022-10-15T01:10:13;18.20;99.90
20526;DHT22;10421;49.142;9.232;2022-10-15T01:12:57;18.20;99.90
20526;DHT22;10421;49.142;9.232;2022-10-15T01:15:35;18.20;99.90
20526;DHT22;10421;49.142;9.232;2022-10-15T01:18:08;18.30;99.90
20526;DHT22;10421;49.142;9.232;2022-10-15T01:20:50;18.20;99.90
20526;DHT22;10421;49.142;9.232;2022-10-15T01:26:35;18.40;99.90
20526;DHT22;10421;49.142;9.232;2022-10-15T01:29:15;18.30;99.90
20526;DHT22;10421;49.142;9.232;2022-10-15T01:31:51;18.30;99.90
20526;DHT22;10421;49.142;9.232;2022-10-15T01:34:25;18.30;99.90
20526;DHT22;10421;49.142;9.232;2022-10-15T01:37:02;18.40;99.90
20526;DHT22;10421;49.142;9.232;2022-10-15T01:39:32;18.40;99.90
20526;DHT22;10421;49.142;9.232;2022-10-15T01:42:02;18.40;99.90
20526;DHT22;10421;49.142;9.232;2022-10-15T01:44:34;18.40;99.90
20526;DHT22;10421;49.142;9.232;2022-10-15T01:47:05;18.40;99.90
20526;DHT22;10421;49.142;9.232;2022-10-15T01:49:36;18.40;99.90
20526;DHT22;10421;49.142;9.232;2022-10-15T01:52:08;18.40;99.90
20526;DHT22;10421;49.142;9.232;2022-10-15T01:54:36;18.40;99.90
20526;DHT22;10421;49.142;9.232;2022-10-15T01:57:04;18.40;99.90
20526;DHT22;10421;49.142;9.232;2022-10-15T01:59:33;18.30;99.90
20526;DHT22;10421;49.142;9.232;2022-10-15T02:02:00;18.30;99.90
20526;DHT22;10421;49.142;9.232;2022-10-15T02:04:30;18.30;99.90
20526;DHT22;10421;49.142;9.232;2022-10-15T02:07:00;18.20;99.90
20526;DHT22;10421;49.142;9.232;2022-10-15T02:09:35;18.30;99.90
20526;DHT22;10421;49.142;9.232;2022-10-15T02:12:11;18.20;99.90
20526;DHT22;10421;49.142;9.232;2022-10-15T02:14:47;18.20;99.90
20526;DHT22;10421;49.142;9.232;2022-10-15T02:17:23;18.20;99.90
20526;DHT22;10421;49.142;9.232;2022-10-15T02:19:58;18.20;99.90
20526;DHT22;10421;49.142;9.232;2022-10-15T02:22:29;18.30;99.90
20526;DHT22;10421;49.142;9.232;2022-10-15T02:25:03;18.30;99.90
20526;DHT22;10421;49.142;9.232;2022-10-15T02:27:32;18.30;99.90
20526;DHT22;10421;49.142;9.232;2022-10-15T02:30:00;18.40;99.90
20526;DHT22;10421;49.142;9.232;2022-10-15T02:32:28;18.40;99.90
20526;DHT22;10421;49.142;9.232;2022-10-15T02:34:59;18.40;99.90
20526;DHT22;10421;49.142;9.232;2022-10-15T02:37:28;18.40;99.90
20526;DHT22;10421;49.142;9.232;2022-10-15T02:39:56;18.30;99.90
20526;DHT22;10421;49.142;9.232;2022-10-15T02:42:23;18.30;99.90
20526;DHT22;10421;49.142;9.232;2022-10-15T02:44:51;18.30;99.90
20526;DHT22;10421;49.142;9.232;2022-10-15T02:47:18;18.30;99.90
20526;DHT22;10421;49.142;9.232;2022-10-15T02:49:45;18.30;99.90
20526;DHT22;10421;49.142;9.232;2022-10-15T02:52:13;18.30;99.90
20526;DHT22;10421;49.142;9.232;2022-10-15T02:54:40;18.30;99.90
20526;DHT22;10421;49.142;9.232;2022-10-15T02:57:06;18.30;99.90
20526;DHT22;10421;49.142;9.232;2022-10-15T02:59:33;18.30;99.90
20526;DHT22;10421;49.142;9.232;2022-10-15T03:02:00;18.30;99.90
20526;DHT22;10421;49.142;9.232;2022-10-15T03:04:26;18.30;99.90
20526;DHT22;10421;49.142;9.232;2022-10-15T03:06:53;18.40;99.90
20526;DHT22;10421;49.142;9.232;2022-10-15T03:09:22;18.40;99.90
20526;DHT22;10421;49.142;9.232;2022-10-15T03:11:48;18.40;99.90
20526;DHT22;10421;49.142;9.232;2022-10-15T03:14:15;18.40;99.90
20526;DHT22;10421;49.142;9.232;2022-10-15T03:16:42;18.40;99.90
20526;DHT22;10421;49.142;9.232;2022-10-15T03:19:08;18.40;99.90
20526;DHT22;10421;49.142;9.232;2022-10-15T03:21:35;18.40;99.90
20526;DHT22;10421;49.142;9.232;2022-10-15T03:24:02;18.40;99.90
20526;DHT22;10421;49.142;9.232;2022-10-15T03:26:30;18.40;99.90
20526;DHT22;10421;49.142;9.232;2022-10-15T03:28:57;18.50;99.90
20526;DHT22;10421;49.142;9.232;2022-10-15T03:31:24;18.50;99.90
20526;DHT22;10421;49.142;9.232;2022-10-15T03:33:50;18.50;99.90
20526;DHT22;10421;49.142;9.232;2022-10-15T03:36:17;18.50;99.90
20526;DHT22;10421;49.142;9.232;2022-10-15T03:38:44;18.50;99.90
20526;DHT22;10421;49.142;9.232;2022-10-15T03:41:11;18.50;99.90
20526;DHT22;10421;49.142;9.232;2022-10-15T03:43:39;18.40;99.90
20526;DHT22;10421;49.142;9.232;2022-10-15T03:46:06;18.50;99.90
20526;DHT22;10421;49.142;9.232;2022-10-15T03:48:32;18.60;99.90
20526;DHT22;10421;49.142;9.232;2022-10-15T03:50:59;18.60;99.90
20526;DHT22;10421;49.142;9.232;2022-10-15T03:53:26;18.60;99.90
20526;DHT22;10421;49.142;9.232;2022-10-15T03:55:53;18.70;99.90
20526;DHT22;10421;49.142;9.232;2022-10-15T03:58:19;18.70;99.90
20526;DHT22;10421;49.142;9.232;2022-10-15T04:00:47;18.60;99.90
20526;DHT22;10421;49.142;9.232;2022-10-15T04:03:14;18.60;99.90
20526;DHT22;10421;49.142;9.232;2022-10-15T04:05:41;18.70;99.90
20526;DHT22;10421;49.142;9.232;2022-10-15T04:08:14;18.70;99.90
20526;DHT22;10421;49.142;9.232;2022-10-15T04:10:41;18.70;99.90
20526;DHT22;10421;49.142;9.232;2022-10-15T04:13:08;18.70;99.90
20526;DHT22;10421;49.142;9.232;2022-10-15T04:15:37;18.70;99.90
20526;DHT22;10421;49.142;9.232;2022-10-15T04:18:06;18.70;99.90
20526;DHT22;10421;49.142;9.232;2022-10-15T04:20:33;18.70;99.90
20526;DHT22;10421;49.142;9.232;2022-10-15T04:22:59;18.70;99.90
20526;DHT22;10421;49.142;9.232;2022-10-15T04:25:26;18.70;99.90
20526;DHT22;10421;49.142;9.232;2022-10-15T04:27:53;18.70;99.90
20526;DHT22;10421;49.142;9.232;2022-10-15T04:30:20;18.80;99.90
20526;DHT22;10421;49.142;9.232;2022-10-15T04:32:47;18.80;99.90
20526;DHT22;10421;49.142;9.232;2022-10-15T04:35:18;18.80;99.90
20526;DHT22;10421;49.142;9.232;2022-10-15T04:37:45;18.80;99.90
20526;DHT22;10421;49.142;9.232;2022-10-15T04:40:12;18.80;99.90
20526;DHT22;10421;49.142;9.232;2022-10-15T04:42:39;18.90;99.90
20526;DHT22;10421;49.142;9.232;2022-10-15T04:45:07;18.90;99.90
20526;DHT22;10421;49.142;9.232;2022-10-15T04:47:34;18.90;99.90
20526;DHT22;10421;49.142;9.232;2022-10-15T04:50:00;18.90;99.90
20526;DHT22;10421;49.142;9.232;2022-10-15T04:52:29;18.90;99.90
20526;DHT22;10421;49.142;9.232;2022-10-15T04:54:55;18.90;99.90
20526;DHT22;10421;49.142;9.232;2022-10-15T04:57:23;18.90;99.90
20526;DHT22;10421;49.142;9.232;2022-10-15T04:59:51;18.80;99.90
20526;DHT22;10421;49.142;9.232;2022-10-15T05:02:18;18.80;99.90
20526;DHT22;10421;49.142;9.232;2022-10-15T05:04:45;18.80;99.90
20526;DHT22;10421;49.142;9.232;2022-10-15T05:07:12;18.90;99.90
20526;DHT22;10421;49.142;9.232;2022-10-15T05:09:40;18.90;99.90
20526;DHT22;10421;49.142;9.232;2022-10-15T05:12:07;18.90;99.90
20526;DHT22;10421;49.142;9.232;2022-10-15T05:14:33;19.00;99.90
20526;DHT22;10421;49.142;9.232;2022-10-15T05:17:01;19.00;99.90
20526;DHT22;10421;49.142;9.232;2022-10-15T05:19:27;18.90;99.90
20526;DHT22;10421;49.142;9.232;2022-10-15T05:21:54;18.80;99.90
20526;DHT22;10421;49.142;9.232;2022-10-15T05:24:21;18.90;99.90
20526;DHT22;10421;49.142;9.232;2022-10-15T05:26:49;18.90;99.90
20526;DHT22;10421;49.142;9.232;2022-10-15T05:29:16;18.90;99.90
20526;DHT22;10421;49.142;9.232;2022-10-15T05:31:42;18.90;99.90
20526;DHT22;10421;49.142;9.232;2022-10-15T05:34:11;19.00;99.90
20526;DHT22;10421;49.142;9.232;2022-10-15T05:36:38;18.90;99.90
20526;DHT22;10421;49.142;9.232;2022-10-15T05:39:05;18.90;99.90
20526;DHT22;10421;49.142;9.232;2022-10-15T05:41:35;19.00;99.90
20526;DHT22;10421;49.142;9.232;2022-10-15T05:44:03;19.00;99.90
20526;DHT22;10421;49.142;9.232;2022-10-15T05:46:30;19.00;99.90
20526;DHT22;10421;49.142;9.232;2022-10-15T05:48:57;19.00;99.90
20526;DHT22;10421;49.142;9.232;2022-10-15T05:51:26;18.90;99.90
20526;DHT22;10421;49.142;9.232;2022-10-15T05:53:53;19.00;99.90
20526;DHT22;10421;49.142;9.232;2022-10-15T05:56:21;19.00;99.90
20526;DHT22;10421;49.142;9.232;2022-10-15T05:58:48;18.90;99.90
20526;DHT22;10421;49.142;9.232;2022-10-15T06:01:17;19.00;99.90
20526;DHT22;10421;49.142;9.232;2022-10-15T06:03:44;19.00;99.90
20526;DHT22;10421;49.142;9.232;2022-10-15T06:06:15;19.00;99.90
20526;DHT22;10421;49.142;9.232;2022-10-15T06:08:42;19.00;99.90
20526;DHT22;10421;49.142;9.232;2022-10-15T06:11:09;19.10;99.90
20526;DHT22;10421;49.142;9.232;2022-10-15T06:13:37;19.10;99.90
20526;DHT22;10421;49.142;9.232;2022-10-15T06:16:05;19.10;99.90
20526;DHT22;10421;49.142;9.232;2022-10-15T06:18:33;19.00;99.90
20526;DHT22;10421;49.142;9.232;2022-10-15T06:21:00;19.10;99.90
20526;DHT22;10421;49.142;9.232;2022-10-15T06:23:27;19.10;99.90
20526;DHT22;10421;49.142;9.232;2022-10-15T06:25:54;19.10;99.90
20526;DHT22;10421;49.142;9.232;2022-10-15T06:28:21;19.20;99.90
20526;DHT22;10421;49.142;9.232;2022-10-15T06:30:47;19.20;99.90
20526;DHT22;10421;49.142;9.232;2022-10-15T06:33:14;19.30;99.90
20526;DHT22;10421;49.142;9.232;2022-10-15T06:35:43;19.30;99.90
20526;DHT22;10421;49.142;9.232;2022-10-15T06:38:10;19.30;99.90
20526;DHT22;10421;49.142;9.232;2022-10-15T06:40:37;19.30;99.90
20526;DHT22;10421;49.142;9.232;2022-10-15T06:43:05;19.30;99.90
20526;DHT22;10421;49.142;9.232;2022-10-15T06:45:32;19.40;99.90
20526;DHT22;10421;49.142;9.232;2022-10-15T06:48:01;19.30;99.90
20526;DHT22;10421;49.142;9.232;2022-10-15T06:50:28;19.30;99.90
20526;DHT22;10421;49.142;9.232;2022-10-15T06:52:56;19.40;99.90
20526;DHT22;10421;49.142;9.232;2022-10-15T06:55:22;19.40;99.90
20526;DHT22;10421;49.142;9.232;2022-10-15T06:57:49;19.40;99.90
20526;DHT22;10421;49.142;9.232;2022-10-15T07:00:16;19.30;99.90
20526;DHT22;10421;49.142;9.232;2022-10-15T07:02:43;19.40;99.90
20526;DHT22;10421;49.142;9.232;2022-10-15T07:05:10;19.40;99.90
20526;DHT22;10421;49.142;9.232;2022-10-15T07:07:36;19.40;99.90
20526;DHT22;10421;49.142;9.232;2022-10-15T07:10:05;19.30;99.90
20526;DHT22;10421;49.142;9.232;2022-10-15T07:12:32;19.20;99.90
20526;DHT22;10421;49.142;9.232;2022-10-15T07:14:59;19.30;99.90
20526;DHT22;10421;49.142;9.232;2022-10-15T07:17:27;19.30;99.90
20526;DHT22;10421;49.142;9.232;2022-10-15T07:19:55;19.30;99.90
20526;DHT22;10421;49.142;9.232;2022-10-15T07:22:21;19.40;99.90
20526;DHT22;10421;49.142;9.232;2022-10-15T07:24:48;19.40;99.90
20526;DHT22;10421;49.142;9.232;2022-10-15T07:27:16;19.40;99.90
20526;DHT22;10421;49.142;9.232;2022-10-15T07:29:43;19.40;99.90
20526;DHT22;10421;49.142;9.232;2022-10-15T07:32:24;19.40;99.90
20526;DHT22;10421;49.142;9.232;2022-10-15T07:34:50;19.40;99.90
20526;DHT22;10421;49.142;9.232;2022-10-15T07:37:17;19.40;99.90
20526;DHT22;10421;49.142;9.232;2022-10-15T07:39:44;19.50;99.90
20526;DHT22;10421;49.142;9.232;2022-10-15T07:42:11;19.30;99.90
20526;DHT22;10421;49.142;9.232;2022-10-15T07:44:39;19.30;99.90
20526;DHT22;10421;49.142;9.232;2022-10-15T07:47:05;19.30;99.90
20526;DHT22;10421;49.142;9.232;2022-10-15T07:49:32;19.30;99.90
20526;DHT22;10421;49.142;9.232;2022-10-15T07:51:59;19.40;99.90
20526;DHT22;10421;49.142;9.232;2022-10-15T07:54:26;19.40;99.90
20526;DHT22;10421;49.142;9.232;2022-10-15T07:56:53;19.20;99.90
20526;DHT22;10421;49.142;9.232;2022-10-15T07:59:19;19.20;99.90
20526;DHT22;10421;49.142;9.232;2022-10-15T08:01:48;19.30;99.90
20526;DHT22;10421;49.142;9.232;2022-10-15T08:04:15;19.20;99.90
20526;DHT22;10421;49.142;9.232;2022-10-15T08:06:42;19.20;99.90
20526;DHT22;10421;49.142;9.232;2022-10-15T08:09:09;19.30;99.90
20526;DHT22;10421;49.142;9.232;2022-10-15T08:11:35;19.30;99.90
20526;DHT22;10421;49.142;9.232;2022-10-15T08:14:02;19.30;99.90
20526;DHT22;10421;49.142;9.232;2022-10-15T08:16:29;19.40;99.90
20526;DHT22;10421;49.142;9.232;2022-10-15T08:18:58;19.30;99.90
20526;DHT22;10421;49.142;9.232;2022-10-15T08:21:25;19.30;99.90
20526;DHT22;10421;49.142;9.232;2022-10-15T08:23:52;19.40;99.90
20526;DHT22;10421;49.142;9.232;2022-10-15T08:26:18;19.40;99.90
20526;DHT22;10421;49.142;9.232;2022-10-15T08:28:45;19.40;99.90
20526;DHT22;10421;49.142;9.232;2022-10-15T08:31:12;19.40;99.90
20526;DHT22;10421;49.142;9.232;2022-10-15T08:33:39;19.40;99.90
20526;DHT22;10421;49.142;9.232;2022-10-15T08:36:07;19.50;99.90
20526;DHT22;10421;49.142;9.232;2022-10-15T08:38:34;19.50;99.90
20526;DHT22;10421;49.142;9.232;2022-10-15T08:41:03;19.50;99.90
20526;DHT22;10421;49.142;9.232;2022-10-15T08:43:35;19.50;99.90
20526;DHT22;10421;49.142;9.232;2022-10-15T08:46:08;19.60;99.90
20526;DHT22;10421;49.142;9.232;2022-10-15T08:48:40;19.60;99.90
20526;DHT22;10421;49.142;9.232;2022-10-15T08:51:10;19.60;99.90
20526;DHT22;10421;49.142;9.232;2022-10-15T08:53:41;19.70;99.90
20526;DHT22;10421;49.142;9.232;2022-10-15T08:56:14;19.70;99.90
20526;DHT22;10421;49.142;9.232;2022-10-15T08:58:48;19.80;99.90
20526;DHT22;10421;49.142;9.232;2022-10-15T09:01:22;19.80;99.90
20526;DHT22;10421;49.142;9.232;2022-10-15T09:04:00;19.80;99.90
20526;DHT22;10421;49.142;9.232;2022-10-15T09:06:32;19.90;99.90
20526;DHT22;10421;49.142;9.232;2022-10-15T09:09:06;19.80;99.90
20526;DHT22;10421;49.142;9.232;2022-10-15T09:11:43;19.90;99.90
20526;DHT22;10421;49.142;9.232;2022-10-15T09:14:14;19.90;99.90
20526;DHT22;10421;49.142;9.232;2022-10-15T09:16:44;19.90;99.90
20526;DHT22;10421;49.142;9.232;2022-10-15T09:19:14;19.90;99.90
20526;DHT22;10421;49.142;9.232;2022-10-15T09:21:43;19.90;99.90
20526;DHT22;10421;49.142;9.232;2022-10-15T09:24:13;19.90;99.90
20526;DHT22;10421;49.142;9.232;2022-10-15T09:26:51;19.90;99.90
20526;DHT22;10421;49.142;9.232;2022-10-15T09:29:24;19.90;99.90
20526;DHT22;10421;49.142;9.232;2022-10-15T09:31:59;19.90;99.90
20526;DHT22;10421;49.142;9.232;2022-10-15T09:34:33;20.00;99.90
20526;DHT22;10421;49.142;9.232;2022-10-15T09:37:05;20.00;99.90
20526;DHT22;10421;49.142;9.232;2022-10-15T09:39:48;19.90;99.90
20526;DHT22;10421;49.142;9.232;2022-10-15T09:42:24;19.90;99.90
20526;DHT22;10421;49.142;9.232;2022-10-15T09:44:58;19.90;99.90
20526;DHT22;10421;49.142;9.232;2022-10-15T09:47:27;19.90;99.90
20526;DHT22;10421;49.142;9.232;2022-10-15T09:49:55;19.80;99.90
20526;DHT22;10421;49.142;9.232;2022-10-15T09:52:34;19.80;99.90
20526;DHT22;10421;49.142;9.232;2022-10-15T09:55:22;19.90;99.90
20526;DHT22;10421;49.142;9.232;2022-10-15T09:57:56;19.90;99.90
20526;DHT22;10421;49.142;9.232;2022-10-15T10:00:54;19.80;99.90
20526;DHT22;10421;49.142;9.232;2022-10-15T10:03:23;19.80;99.90
20526;DHT22;10421;49.142;9.232;2022-10-15T10:05:58;19.90;99.90
20526;DHT22;10421;49.142;9.232;2022-10-15T10:08:29;19.90;99.90
20526;DHT22;10421;49.142;9.232;2022-10-15T10:10:59;19.90;99.90
20526;DHT22;10421;49.142;9.232;2022-10-15T10:13:29;19.90;99.90
20526;DHT22;10421;49.142;9.232;2022-10-15T10:16:02;19.80;99.90
20526;DHT22;10421;49.142;9.232;2022-10-15T10:18:29;19.80;99.90
20526;DHT22;10421;49.142;9.232;2022-10-15T10:20:58;19.70;99.90
20526;DHT22;10421;49.142;9.232;2022-10-15T10:23:30;19.80;99.90
20526;DHT22;10421;49.142;9.232;2022-10-15T10:26:00;19.90;99.90
20526;DHT22;10421;49.142;9.232;2022-10-15T10:28:31;19.80;99.90
20526;DHT22;10421;49.142;9.232;2022-10-15T10:31:02;19.90;99.90
20526;DHT22;10421;49.142;9.232;2022-10-15T10:33:31;20.00;99.90
20526;DHT22;10421;49.142;9.232;2022-10-15T10:35:59;20.10;99.90
20526;DHT22;10421;49.142;9.232;2022-10-15T10:38:30;20.10;99.90
20526;DHT22;10421;49.142;9.232;2022-10-15T10:40:59;20.20;99.90
20526;DHT22;10421;49.142;9.232;2022-10-15T10:43:31;20.20;99.90
20526;DHT22;10421;49.142;9.232;2022-10-15T10:45:59;20.20;99.90
20526;DHT22;10421;49.142;9.232;2022-10-15T10:48:36;20.30;99.90
20526;DHT22;10421;49.142;9.232;2022-10-15T10:51:08;20.40;99.90
20526;DHT22;10421;49.142;9.232;2022-10-15T10:53:45;20.40;99.90
20526;DHT22;10421;49.142;9.232;2022-10-15T10:56:16;20.50;99.90
20526;DHT22;10421;49.142;9.232;2022-10-15T10:58:43;20.50;99.90
20526;DHT22;10421;49.142;9.232;2022-10-15T11:01:11;20.40;99.90
20526;DHT22;10421;49.142;9.232;2022-10-15T11:03:39;20.50;99.90
20526;DHT22;10421;49.142;9.232;2022-10-15T11:06:37;20.10;99.90
20526;DHT22;10421;49.142;9.232;2022-10-15T11:09:18;20.20;99.90
20526;DHT22;10421;49.142;9.232;2022-10-15T11:11:56;20.30;99.90
20526;DHT22;10421;49.142;9.232;2022-10-15T11:14:31;20.40;99.90
20526;DHT22;10421;49.142;9.232;2022-10-15T11:17:10;20.50;99.90
20526;DHT22;10421;49.142;9.232;2022-10-15T11:19:43;20.70;99.90
20526;DHT22;10421;49.142;9.232;2022-10-15T11:22:30;20.70;99.90
20526;DHT22;10421;49.142;9.232;2022-10-15T11:25:11;20.70;99.90
20526;DHT22;10421;49.142;9.232;2022-10-15T11:27:47;20.80;99.90
20526;DHT22;10421;49.142;9.232;2022-10-15T11:30:32;21.00;99.90
20526;DHT22;10421;49.142;9.232;2022-10-15T11:33:15;21.10;99.90
20526;DHT22;10421;49.142;9.232;2022-10-15T11:35:49;21.20;99.90
20526;DHT22;10421;49.142;9.232;2022-10-15T11:38:24;21.20;99.90
20526;DHT22;10421;49.142;9.232;2022-10-15T11:41:08;21.40;99.90
20526;DHT22;10421;49.142;9.232;2022-10-15T11:43:47;21.40;99.90
20526;DHT22;10421;49.142;9.232;2022-10-15T11:46:23;21.40;99.90
20526;DHT22;10421;49.142;9.232;2022-10-15T11:49:02;21.50;99.90
20526;DHT22;10421;49.142;9.232;2022-10-15T11:51:36;21.50;99.90
20526;DHT22;10421;49.142;9.232;2022-10-15T11:54:17;21.60;99.90
20526;DHT22;10421;49.142;9.232;2022-10-15T11:56:50;21.60;99.90
20526;DHT22;10421;49.142;9.232;2022-10-15T11:59:32;21.70;99.90
20526;DHT22;10421;49.142;9.232;2022-10-15T12:02:04;21.70;99.90
20526;DHT22;10421;49.142;9.232;2022-10-15T12:04:37;21.70;99.90
20526;DHT22;10421;49.142;9.232;2022-10-15T12:07:06;21.70;99.90
20526;DHT22;10421;49.142;9.232;2022-10-15T12:09:39;21.80;99.90
20526;DHT22;10421;49.142;9.232;2022-10-15T12:12:18;21.70;99.80
20526;DHT22;10421;49.142;9.232;2022-10-15T12:14:54;21.60;99.80
20526;DHT22;10421;49.142;9.232;2022-10-15T12:17:33;21.70;99.50
20526;DHT22;10421;49.142;9.232;2022-10-15T12:20:07;21.60;99.10
20526;DHT22;10421;49.142;9.232;2022-10-15T12:22:40;21.60;99.10
20526;DHT22;10421;49.142;9.232;2022-10-15T12:25:43;21.50;99.00
20526;DHT22;10421;49.142;9.232;2022-10-15T12:28:16;21.60;98.90
20526;DHT22;10421;49.142;9.232;2022-10-15T12:31:02;21.60;98.80
20526;DHT22;10421;49.142;9.232;2022-10-15T12:33:33;21.60;98.80
20526;DHT22;10421;49.142;9.232;2022-10-15T12:36:02;21.60;98.80
20526;DHT22;10421;49.142;9.232;2022-10-15T12:38:35;21.60;99.00
20526;DHT22;10421;49.142;9.232;2022-10-15T12:41:07;21.60;99.00
20526;DHT22;10421;49.142;9.232;2022-10-15T12:43:37;21.70;99.00
20526;DHT22;10421;49.142;9.232;2022-10-15T12:46:08;21.70;99.00
20526;DHT22;10421;49.142;9.232;2022-10-15T12:48:38;21.70;99.20
20526;DHT22;10421;49.142;9.232;2022-10-15T12:51:36;21.70;99.30
20526;DHT22;10421;49.142;9.232;2022-10-15T12:54:36;21.70;99.20
20526;DHT22;10421;49.142;9.232;2022-10-15T13:00:27;21.70;99.00
20526;DHT22;10421;49.142;9.232;2022-10-15T13:02:56;21.70;98.80
20526;DHT22;10421;49.142;9.232;2022-10-15T13:05:27;21.60;98.20
20526;DHT22;10421;49.142;9.232;2022-10-15T13:07:56;21.60;98.40
20526;DHT22;10421;49.142;9.232;2022-10-15T13:10:26;21.60;98.00
20526;DHT22;10421;49.142;9.232;2022-10-15T13:12:57;21.60;97.80
20526;DHT22;10421;49.142;9.232;2022-10-15T13:15:27;21.60;97.80
20526;DHT22;10421;49.142;9.232;2022-10-15T13:17:55;21.60;97.90
20526;DHT22;10421;49.142;9.232;2022-10-15T13:20:29;21.60;97.80
20526;DHT22;10421;49.142;9.232;2022-10-15T13:23:09;21.60;97.90
20526;DHT22;10421;49.142;9.232;2022-10-15T13:25:36;21.60;98.00
20526;DHT22;10421;49.142;9.232;2022-10-15T13:31:06;21.50;98.20
20526;DHT22;10421;49.142;9.232;2022-10-15T13:33:38;21.50;98.30
20526;DHT22;10421;49.142;9.232;2022-10-15T13:36:07;21.50;98.50
20526;DHT22;10421;49.142;9.232;2022-10-15T13:38:37;21.60;98.50
20526;DHT22;10421;49.142;9.232;2022-10-15T13:41:05;21.60;98.60
20526;DHT22;10421;49.142;9.232;2022-10-15T13:43:33;21.60;98.70
20526;DHT22;10421;49.142;9.232;2022-10-15T13:46:00;21.60;98.70
20526;DHT22;10421;49.142;9.232;2022-10-15T13:48:30;21.60;98.80
20526;DHT22;10421;49.142;9.232;2022-10-15T13:50:59;21.60;98.80
20526;DHT22;10421;49.142;9.232;2022-10-15T13:53:28;21.60;99.00
20526;DHT22;10421;49.142;9.232;2022-10-15T13:55:58;21.60;99.30
20526;DHT22;10421;49.142;9.232;2022-10-15T13:58:26;21.60;99.30
20526;DHT22;10421;49.142;9.232;2022-10-15T14:00:57;21.60;99.40
20526;DHT22;10421;49.142;9.232;2022-10-15T14:03:25;21.60;99.40
20526;DHT22;10421;49.142;9.232;2022-10-15T14:05:54;21.60;99.40
20526;DHT22;10421;49.142;9.232;2022-10-15T14:08:25;21.60;99.40
20526;DHT22;10421;49.142;9.232;2022-10-15T14:10:54;21.60;99.50
20526;DHT22;10421;49.142;9.232;2022-10-15T14:13:22;21.60;99.40
20526;DHT22;10421;49.142;9.232;2022-10-15T14:15:57;21.60;99.40
20526;DHT22;10421;49.142;9.232;2022-10-15T14:18:34;21.60;99.40
20526;DHT22;10421;49.142;9.232;2022-10-15T14:21:08;21.50;99.40
20526;DHT22;10421;49.142;9.232;2022-10-15T14:23:36;21.50;99.40
20526;DHT22;10421;49.142;9.232;2022-10-15T14:26:03;21.50;99.50
20526;DHT22;10421;49.142;9.232;2022-10-15T14:28:32;21.50;99.60
20526;DHT22;10421;49.142;9.232;2022-10-15T14:31:00;21.40;99.60
20526;DHT22;10421;49.142;9.232;2022-10-15T14:33:29;21.30;99.70
20526;DHT22;10421;49.142;9.232;2022-10-15T14:36:06;21.20;99.90
20526;DHT22;10421;49.142;9.232;2022-10-15T14:38:34;21.30;99.90
20526;DHT22;10421;49.142;9.232;2022-10-15T14:41:02;21.20;99.90
20526;DHT22;10421;49.142;9.232;2022-10-15T14:43:33;21.10;99.90
20526;DHT22;10421;49.142;9.232;2022-10-15T14:46:03;21.00;99.90
20526;DHT22;10421;49.142;9.232;2022-10-15T14:48:32;21.10;99.90
20526;DHT22;10421;49.142;9.232;2022-10-15T14:51:02;21.00;99.90
20526;DHT22;10421;49.142;9.232;2022-10-15T14:53:33;21.00;99.90
20526;DHT22;10421;49.142;9.232;2022-10-15T14:56:03;21.00;99.90
20526;DHT22;10421;49.142;9.232;2022-10-15T14:58:31;21.00;99.90
20526;DHT22;10421;49.142;9.232;2022-10-15T15:01:00;21.00;99.90
20526;DHT22;10421;49.142;9.232;2022-10-15T15:03:30;21.10;99.90
20526;DHT22;10421;49.142;9.232;2022-10-15T15:05:57;21.10;99.90
20526;DHT22;10421;49.142;9.232;2022-10-15T15:08:25;21.00;99.90
20526;DHT22;10421;49.142;9.232;2022-10-15T15:10:55;20.90;99.90
20526;DHT22;10421;49.142;9.232;2022-10-15T15:13:23;21.00;99.90
20526;DHT22;10421;49.142;9.232;2022-10-15T15:15:51;20.90;99.90
20526;DHT22;10421;49.142;9.232;2022-10-15T15:18:18;20.90;99.90
20526;DHT22;10421;49.142;9.232;2022-10-15T15:20:46;21.00;99.90
20526;DHT22;10421;49.142;9.232;2022-10-15T15:23:17;21.00;99.90
20526;DHT22;10421;49.142;9.232;2022-10-15T15:25:45;21.00;99.90
20526;DHT22;10421;49.142;9.232;2022-10-15T15:28:14;21.10;99.90
20526;DHT22;10421;49.142;9.232;2022-10-15T15:30:42;21.10;99.90
20526;DHT22;10421;49.142;9.232;2022-10-15T15:33:11;21.10;99.90
20526;DHT22;10421;49.142;9.232;2022-10-15T15:35:40;21.20;99.90
20526;DHT22;10421;49.142;9.232;2022-10-15T15:38:15;21.10;99.90
20526;DHT22;10421;49.142;9.232;2022-10-15T15:40:42;21.10;99.90
20526;DHT22;10421;49.142;9.232;2022-10-15T15:43:13;21.10;99.90
20526;DHT22;10421;49.142;9.232;2022-10-15T15:45:40;21.10;99.90
20526;DHT22;10421;49.142;9.232;2022-10-15T15:48:07;21.10;99.90
20526;DHT22;10421;49.142;9.232;2022-10-15T15:50:35;21.10;99.90
20526;DHT22;10421;49.142;9.232;2022-10-15T15:53:03;21.10;99.90
20526;DHT22;10421;49.142;9.232;2022-10-15T15:55:30;21.10;99.90
20526;DHT22;10421;49.142;9.232;2022-10-15T15:57:56;21.20;99.90